Time;durP1;ratioP1;P1;durP2;ratioP2;P2;SDS_P1;SDS_P2;PMS_P1;PMS_P2;Temp;Humidity;BMP_temperature;BMP_pressure;BME280_temperature;BME280_humidity;BME280_pressure;Samples;Min_cycle;Max_cycle;Signal;HPM_P1;HPM_P2
2023/12/08 00:02:29;;;;;;;;;32.40;31.60;;;;;1.09;65.68;99677.22;5116248;27;8899;-79
2023/12/08 00:04:57;;;;;;;;;39.40;36.40;;;;;1.19;65.76;99667.91;5097453;27;8854;-77
2023/12/08 00:07:27;;;;;;;;;41.00;38.00;;;;;0.47;67.34;99662.97;5130298;27;8830;-76
2023/12/08 00:09:56;;;;;;;;;41.00;38.00;;;;;0.73;66.74;99673.03;5100427;27;8875;-78
2023/12/08 00:12:25;;;;;;;;;42.75;38.25;;;;;0.48;67.30;99671.59;5129788;27;8851;-77
2023/12/08 00:14:54;;;;;;;;;36.75;36.75;;;;;0.66;67.21;99663.38;5129686;27;8862;-76
2023/12/08 00:17:26;;;;;;;;;46.80;39.80;;;;;0.50;67.30;99675.13;5130635;27;8866;-77
2023/12/08 00:19:56;;;;;;;;;45.75;39.75;;;;;0.68;66.81;99668.59;5130155;27;8846;-77
2023/12/08 00:22:27;;;;;;;;;43.50;40.25;;;;;0.28;68.18;99669.44;5141498;27;9112;-76
2023/12/08 00:24:56;;;;;;;;;44.75;40.75;;;;;0.52;67.54;99673.44;5083617;27;8869;-77
2023/12/08 00:27:25;;;;;;;;;44.25;41.75;;;;;0.76;66.70;99672.19;5134135;27;9004;-78
2023/12/08 00:29:54;;;;;;;;;43.80;39.80;;;;;0.43;67.93;99681.84;5108430;28;8903;-76
2023/12/08 00:32:24;;;;;;;;;49.00;43.50;;;;;0.60;67.69;99683.94;5108590;28;8835;-77
2023/12/08 00:34:53;;;;;;;;;45.40;39.80;;;;;1.19;65.69;99681.72;5108231;28;8867;-77
2023/12/08 00:37:22;;;;;;;;;38.00;34.00;;;;;1.32;64.91;99680.25;5108568;28;8868;-76
2023/12/08 00:39:52;;;;;;;;;42.60;33.80;;;;;1.70;63.73;99676.59;5074285;28;8851;-76
2023/12/08 00:42:21;;;;;;;;;38.50;31.75;;;;;0.67;65.70;99683.22;5091266;28;8876;-77
2023/12/08 00:44:50;;;;;;;;;48.00;41.25;;;;;0.93;66.04;99673.41;5091139;28;8867;-78
2023/12/08 00:47:19;;;;;;;;;41.00;39.00;;;;;0.79;66.80;99686.06;5091603;28;8847;-76
2023/12/08 00:49:50;;;;;;;;;42.00;39.40;;;;;1.27;65.15;99687.06;5091000;28;8885;-77
2023/12/08 00:52:19;;;;;;;;;49.80;41.60;;;;;1.51;64.06;99686.63;5077841;28;8915;-77
2023/12/08 00:54:48;;;;;;;;;40.50;36.00;;;;;1.70;63.46;99680.06;5109629;28;8867;-78
2023/12/08 00:57:17;;;;;;;;;47.25;41.25;;;;;1.25;65.29;99688.75;5091426;28;8846;-77
2023/12/08 00:59:46;;;;;;;;;52.75;43.75;;;;;1.18;65.27;99677.41;5108068;28;8954;-78
2023/12/08 01:02:15;;;;;;;;;45.25;40.25;;;;;0.65;67.76;99687.47;5108237;28;8855;-77
2023/12/08 01:04:44;;;;;;;;;43.80;39.40;;;;;0.48;68.83;99692.28;5095199;28;8851;-78
2023/12/08 01:07:15;;;;;;;;;48.25;43.25;;;;;0.99;66.57;99675.28;5121824;27;8833;-77
2023/12/08 01:09:44;;;;;;;;;51.75;43.50;;;;;0.30;69.46;99687.59;5133439;27;8940;-77
2023/12/08 01:12:12;;;;;;;;;49.50;44.50;;;;;0.15;70.12;99682.06;5081567;27;8871;-78
2023/12/08 01:14:41;;;;;;;;;56.50;44.25;;;;;0.08;70.13;99679.34;5114968;27;9643;-78
2023/12/08 01:17:10;;;;;;;;;51.25;43.00;;;;;-0.05;70.66;99679.00;5132786;27;8853;-76
2023/12/08 01:19:39;;;;;;;;;49.75;42.75;;;;;0.03;70.64;99682.66;5151250;27;8853;-77
2023/12/08 01:22:08;;;;;;;;;40.75;38.50;;;;;0.07;70.38;99677.59;5115159;27;8834;-78
2023/12/08 01:24:39;;;;;;;;;44.75;41.25;;;;;0.22;69.48;99679.66;5151705;27;8921;-78
2023/12/08 01:27:07;;;;;;;;;47.50;45.00;;;;;0.43;68.95;99683.56;5132681;27;9003;-78
2023/12/08 01:29:36;;;;;;;;;46.00;40.75;;;;;-0.31;71.44;99687.88;5132732;27;8983;-77
2023/12/08 01:32:06;;;;;;;;;55.25;44.00;;;;;-0.36;71.57;99689.44;5151170;27;8845;-78
2023/12/08 01:34:35;;;;;;;;;50.00;41.25;;;;;-0.29;72.05;99682.75;5150818;27;8881;-78
2023/12/08 01:37:04;;;;;;;;;50.75;43.00;;;;;-0.40;72.59;99686.75;5150698;27;8891;-76
2023/12/08 01:39:34;;;;;;;;;46.75;41.75;;;;;-0.49;72.96;99695.13;5132596;27;8870;-76
2023/12/08 01:42:04;;;;;;;;;50.75;43.75;;;;;-0.70;73.09;99685.09;5152846;27;8953;-77
2023/12/08 01:44:33;;;;;;;;;52.25;45.50;;;;;-0.56;73.28;99683.78;5133372;27;9591;-76
2023/12/08 01:47:03;;;;;;;;;52.00;43.25;;;;;-0.43;72.65;99686.66;5132275;27;8871;-77
2023/12/08 01:49:32;;;;;;;;;52.00;43.50;;;;;-0.60;73.56;99684.50;5150890;27;8983;-77
2023/12/08 01:52:02;;;;;;;;;53.50;46.50;;;;;-0.18;71.92;99688.16;5097897;27;8837;-77
2023/12/08 01:54:33;;;;;;;;;56.50;43.75;;;;;-0.18;72.14;99693.31;5153908;27;9039;-78
2023/12/08 01:57:03;;;;;;;;;53.75;43.00;;;;;-0.01;71.31;99679.13;5117297;27;8869;-77
2023/12/08 01:59:33;;;;;;;;;48.00;45.00;;;;;0.46;69.65;99673.28;5132376;27;8817;-77
2023/12/08 02:02:02;;;;;;;;;50.50;44.25;;;;;0.81;68.58;99673.19;5132526;27;8998;-77
2023/12/08 02:04:31;;;;;;;;;44.25;40.00;;;;;1.08;67.46;99677.19;5115062;27;8928;-80
2023/12/08 02:07:01;;;;;;;;;45.00;41.50;;;;;1.15;67.42;99672.16;5114165;27;8853;-78
2023/12/08 02:09:30;;;;;;;;;38.50;35.75;;;;;0.79;68.71;99680.91;5114433;27;8841;-78
2023/12/08 02:11:59;;;;;;;;;54.00;44.75;;;;;0.61;68.99;99676.22;5097146;27;8949;-79
2023/12/08 02:14:30;;;;;;;;;56.75;48.00;;;;;0.40;70.36;99680.91;5150455;27;8881;-77
2023/12/08 02:17:03;;;;;;;;;46.25;43.75;;;;;0.54;69.30;99676.03;5150477;27;8941;-78
2023/12/08 02:19:34;;;;;;;;;59.00;45.25;;;;;0.43;70.28;99673.22;5154986;27;8863;-77
2023/12/08 02:22:02;;;;;;;;;45.25;40.25;;;;;0.11;71.37;99669.91;5101177;27;8919;-77
2023/12/08 02:24:33;;;;;;;;;52.50;45.00;;;;;-0.13;72.37;99674.50;5131984;27;9003;-76
2023/12/08 02:27:02;;;;;;;;;55.75;45.50;;;;;-0.18;73.24;99665.81;5132015;27;8844;-78
2023/12/08 02:29:31;;;;;;;;;57.00;46.75;;;;;-0.19;72.85;99663.16;5131922;27;8844;-79
2023/12/08 02:32:07;;;;;;;;;65.75;52.00;;;;;-0.35;73.95;99664.47;5063484;27;8841;-77
2023/12/08 02:34:36;;;;;;;;;50.75;44.75;;;;;-0.51;74.48;99673.56;5131369;27;8959;-76
2023/12/08 02:37:09;;;;;;;;;47.25;42.75;;;;;-0.42;73.97;99671.22;5114297;27;8865;-77
2023/12/08 02:39:41;;;;;;;;;56.25;46.50;;;;;-0.53;74.52;99665.75;5131570;27;8836;-77
2023/12/08 02:42:11;;;;;;;;;61.00;48.50;;;;;-0.36;73.69;99663.63;5150120;27;8871;-77
2023/12/08 02:44:40;;;;;;;;;67.50;49.25;;;;;-0.21;73.38;99673.47;5149780;27;8924;-78
2023/12/08 02:47:09;;;;;;;;;60.50;47.50;;;;;-0.18;73.10;99672.66;5149962;27;8964;-76
2023/12/08 02:49:38;;;;;;;;;57.00;49.00;;;;;-0.34;73.32;99671.41;5150583;27;8871;-77
2023/12/08 02:52:07;;;;;;;;;62.50;48.50;;;;;-0.39;73.82;99667.81;5149667;27;8972;-76
2023/12/08 02:54:36;;;;;;;;;58.25;46.50;;;;;-0.32;73.30;99670.59;5131053;27;8886;-76
2023/12/08 02:57:06;;;;;;;;;63.50;50.25;;;;;-0.31;74.26;99682.69;5131275;27;8860;-77
2023/12/08 02:59:35;;;;;;;;;60.00;48.75;;;;;-0.28;73.72;99678.44;5131064;27;8845;-77
2023/12/08 03:02:04;;;;;;;;;61.25;49.25;;;;;-0.46;74.81;99676.25;5131083;27;8841;-76
2023/12/08 03:04:33;;;;;;;;;62.00;48.50;;;;;-0.43;74.93;99674.63;5149483;27;8856;-76
2023/12/08 03:07:02;;;;;;;;;60.00;48.25;;;;;-0.25;74.08;99675.94;5131473;27;8829;-75
2023/12/08 03:09:31;;;;;;;;;61.50;49.25;;;;;-0.42;74.65;99668.63;5149288;27;8841;-76
2023/12/08 03:12:00;;;;;;;;;59.00;49.25;;;;;-0.31;74.15;99668.91;5019600;28;9060;-76
2023/12/08 03:14:31;;;;;;;;;55.50;45.00;;;;;-0.14;73.37;99670.19;5052204;28;9643;-77
2023/12/08 03:16:59;;;;;;;;;62.75;50.75;;;;;-0.57;74.92;99673.41;5052070;28;8849;-77
2023/12/08 03:19:28;;;;;;;;;62.75;47.00;;;;;-0.47;75.15;99675.38;5088128;28;8849;-77
2023/12/08 03:21:58;;;;;;;;;56.50;46.75;;;;;-0.46;74.94;99677.16;5039762;28;8838;-77
2023/12/08 03:24:27;;;;;;;;;61.75;44.00;;;;;-0.47;75.68;99675.38;5072630;28;8913;-77
2023/12/08 03:26:56;;;;;;;;;42.75;34.75;;;;;-0.45;74.82;99680.59;5092107;28;8942;-75
2023/12/08 03:29:25;;;;;;;;;45.50;36.75;;;;;-0.41;74.84;99683.28;5079572;28;8850;-77
2023/12/08 03:31:55;;;;;;;;;62.25;49.75;;;;;-0.29;74.95;99682.75;5057668;28;9615;-77
2023/12/08 03:34:24;;;;;;;;;56.25;47.50;;;;;-0.45;75.10;99686.63;5023247;28;8854;-76
2023/12/08 03:36:53;;;;;;;;;62.50;50.25;;;;;-0.47;74.83;99687.44;5072544;28;8846;-77
2023/12/08 03:39:22;;;;;;;;;48.75;45.25;;;;;-0.34;74.31;99692.06;5090124;28;8830;-77
2023/12/08 03:41:51;;;;;;;;;60.00;48.25;;;;;-0.40;74.96;99687.63;5076765;28;8907;-76
2023/12/08 03:44:20;;;;;;;;;56.50;46.00;;;;;-0.18;74.38;99681.31;5089431;28;8877;-77
2023/12/08 03:46:49;;;;;;;;;63.50;48.75;;;;;-0.20;74.21;99684.66;5072442;28;8846;-77
2023/12/08 03:49:19;;;;;;;;;68.00;55.50;;;;;-0.01;73.80;99694.63;5103622;27;8868;-77
2023/12/08 03:51:48;;;;;;;;;57.00;49.75;;;;;-0.29;74.72;99685.31;5131239;27;8845;-77
2023/12/08 03:54:17;;;;;;;;;60.00;48.50;;;;;-0.11;74.58;99684.88;5131319;27;8850;-77
2023/12/08 03:56:46;;;;;;;;;62.00;49.25;;;;;-0.23;74.12;99682.03;5114027;27;8918;-76
2023/12/08 03:59:15;;;;;;;;;60.50;48.50;;;;;-0.07;74.21;99689.28;5131224;27;8842;-77
2023/12/08 04:01:44;;;;;;;;;59.50;48.50;;;;;0.02;72.90;99676.59;5132262;27;8938;-76
2023/12/08 04:04:13;;;;;;;;;60.75;47.75;;;;;0.04;73.04;99677.50;5096250;27;8831;-78
2023/12/08 04:06:56;;;;;;;;;65.00;52.50;;;;;-0.01;72.93;99671.38;5114035;27;8960;-77
2023/12/08 04:09:25;;;;;;;;;63.25;48.75;;;;;-0.10;74.05;99671.16;5130744;27;9604;-77
2023/12/08 04:11:56;;;;;;;;;57.25;48.50;;;;;0.19;72.61;99681.28;5096174;27;8854;-77
2023/12/08 04:14:25;;;;;;;;;49.50;44.00;;;;;-0.12;73.29;99683.16;5132044;27;8830;-77
2023/12/08 04:16:54;;;;;;;;;58.50;47.25;;;;;0.01;73.43;99674.88;5131331;27;8831;-78
2023/12/08 04:19:24;;;;;;;;;58.50;49.50;;;;;0.07;73.20;99684.47;5137417;27;8835;-77
2023/12/08 04:21:53;;;;;;;;;58.75;49.00;;;;;-0.05;73.45;99684.16;5139450;27;8853;-76
2023/12/08 04:24:23;;;;;;;;;64.50;51.00;;;;;-0.14;73.75;99683.13;5152464;27;8871;-76
2023/12/08 04:26:52;;;;;;;;;64.00;52.50;;;;;-0.15;74.06;99673.59;5133661;27;8899;-77
2023/12/08 04:29:21;;;;;;;;;57.50;44.25;;;;;-0.12;73.39;99675.41;5099401;27;8868;-76
2023/12/08 04:31:50;;;;;;;;;53.00;45.00;;;;;-0.21;73.56;99670.88;5152102;27;8868;-77
2023/12/08 04:34:19;;;;;;;;;59.50;47.50;;;;;-0.21;73.82;99676.03;5134034;27;8837;-78
2023/12/08 04:36:48;;;;;;;;;51.75;45.00;;;;;-0.33;73.90;99670.59;5133734;27;8857;-77
2023/12/08 04:39:17;;;;;;;;;58.00;47.50;;;;;-0.42;74.59;99673.81;5116623;27;8860;-78
2023/12/08 04:41:48;;;;;;;;;65.50;50.00;;;;;-0.22;74.23;99676.00;5116726;27;8825;-76
2023/12/08 04:44:18;;;;;;;;;53.75;46.75;;;;;-0.08;73.32;99677.22;5152094;27;8894;-78
2023/12/08 04:46:46;;;;;;;;;55.50;43.00;;;;;-0.23;74.14;99680.31;5152174;27;8968;-77
2023/12/08 04:49:15;;;;;;;;;61.75;49.50;;;;;-0.08;73.65;99672.06;5133333;27;8987;-77
2023/12/08 04:51:44;;;;;;;;;54.75;46.25;;;;;-0.47;74.76;99680.53;5133282;27;8861;-77
2023/12/08 04:54:13;;;;;;;;;48.25;42.75;;;;;-0.48;75.11;99675.34;5133165;27;8837;-77
2023/12/08 04:56:42;;;;;;;;;60.00;49.25;;;;;-0.66;75.31;99673.16;5065520;27;8891;-77
2023/12/08 04:59:13;;;;;;;;;58.75;46.50;;;;;-0.66;75.88;99674.03;5133313;27;8837;-77
2023/12/08 05:01:42;;;;;;;;;69.00;55.50;;;;;-0.71;76.12;99671.34;5151740;27;8884;-77
2023/12/08 05:04:11;;;;;;;;;56.50;46.25;;;;;-0.65;76.24;99670.63;5151487;27;8865;-77
2023/12/08 05:06:39;;;;;;;;;64.50;49.25;;;;;-0.44;75.61;99675.47;5132819;27;9739;-78
2023/12/08 05:09:10;;;;;;;;;65.50;52.50;;;;;-0.35;75.18;99675.72;5082022;27;8853;-77
2023/12/08 05:11:39;;;;;;;;;61.25;49.00;;;;;-0.29;74.72;99675.00;5151521;27;8939;-77
2023/12/08 05:14:08;;;;;;;;;58.75;49.25;;;;;-0.06;73.77;99672.09;5133083;27;8829;-78
2023/12/08 05:16:38;;;;;;;;;59.00;48.75;;;;;-0.36;74.91;99679.13;5107046;28;8852;-77
2023/12/08 05:19:07;;;;;;;;;63.25;52.75;;;;;-0.34;74.95;99676.56;5107748;28;8963;-76
2023/12/08 05:21:36;;;;;;;;;55.00;41.75;;;;;-0.41;75.40;99680.69;5090701;28;8926;-79
2023/12/08 05:24:06;;;;;;;;;61.50;50.75;;;;;-0.44;74.93;99682.34;5091352;28;8862;-79
2023/12/08 05:26:35;;;;;;;;;66.25;52.25;;;;;-0.13;74.06;99683.97;5092963;28;8864;-77
2023/12/08 05:29:04;;;;;;;;;57.50;46.50;;;;;-0.11;73.45;99680.59;5076008;28;8832;-78
2023/12/08 05:31:33;;;;;;;;;70.25;55.75;;;;;-0.15;74.29;99683.94;5090756;28;8843;-77
2023/12/08 05:34:04;;;;;;;;;63.75;50.00;;;;;-0.34;74.94;99681.75;5090496;28;8840;-77
2023/12/08 05:36:33;;;;;;;;;62.75;49.75;;;;;-0.29;74.48;99677.56;5037018;28;8894;-77
2023/12/08 05:39:04;;;;;;;;;62.75;48.00;;;;;-0.40;75.05;99679.00;5070194;28;8839;-78
2023/12/08 05:41:34;;;;;;;;;55.75;46.75;;;;;-0.26;74.99;99680.22;5069158;28;8832;-77
2023/12/08 05:44:03;;;;;;;;;67.50;53.00;;;;;-0.12;74.40;99681.44;5087074;28;8843;-77
2023/12/08 05:46:32;;;;;;;;;70.25;55.25;;;;;0.28;72.35;99678.94;5021181;28;8966;-77
2023/12/08 05:49:01;;;;;;;;;63.00;53.25;;;;;0.36;71.95;99676.50;5060906;27;8845;-75
2023/12/08 05:51:31;;;;;;;;;63.50;49.00;;;;;0.26;72.26;99686.66;5125057;27;8874;-77
2023/12/08 05:54:00;;;;;;;;;66.75;54.00;;;;;0.31;71.90;99684.16;5132745;27;9439;-77
2023/12/08 05:56:29;;;;;;;;;56.25;45.75;;;;;0.03;72.34;99693.00;5150857;27;8871;-77
2023/12/08 05:58:58;;;;;;;;;64.50;49.50;;;;;0.09;72.69;99682.81;5150590;27;8969;-76
2023/12/08 06:01:27;;;;;;;;;68.00;52.25;;;;;0.19;72.60;99686.47;5080738;27;8915;-78
2023/12/08 06:03:56;;;;;;;;;78.25;61.25;;;;;0.28;72.46;99684.09;5132087;27;8884;-77
2023/12/08 06:06:27;;;;;;;;;59.25;48.25;;;;;0.22;72.40;99682.25;5131523;27;8853;-76
2023/12/08 06:08:58;;;;;;;;;62.25;52.50;;;;;0.22;72.77;99686.56;5106392;28;9659;-76
2023/12/08 06:11:28;;;;;;;;;59.00;47.75;;;;;0.07;72.49;99693.09;5072005;28;8839;-78
2023/12/08 06:13:57;;;;;;;;;70.25;57.00;;;;;-0.09;73.46;99692.69;5106124;28;8859;-78
2023/12/08 06:16:26;;;;;;;;;65.00;54.75;;;;;0.03;73.27;99683.53;5088832;28;8932;-76
2023/12/08 06:18:54;;;;;;;;;62.50;51.00;;;;;0.14;72.88;99691.53;5105894;28;9029;-79
2023/12/08 06:21:23;;;;;;;;;64.00;49.00;;;;;-0.05;73.07;99692.78;5098714;28;8883;-77
2023/12/08 06:23:52;;;;;;;;;51.00;43.75;;;;;-0.05;72.54;99692.78;5067021;28;8938;-78
2023/12/08 06:26:24;;;;;;;;;80.00;61.75;;;;;0.62;71.40;99690.03;5093783;28;8883;-78
2023/12/08 06:28:53;;;;;;;;;73.50;56.25;;;;;1.13;69.75;99689.38;5096090;28;9573;-76
2023/12/08 06:31:21;;;;;;;;;67.75;55.25;;;;;1.53;68.68;99690.13;5062747;28;8845;-77
2023/12/08 06:33:50;;;;;;;;;70.50;53.00;;;;;1.80;67.52;99681.94;5103915;28;8829;-79
2023/12/08 06:36:45;;;;;;;;;70.25;56.75;;;;;2.05;65.99;99684.06;5093619;28;8873;-78
2023/12/08 06:39:15;;;;;;;;;96.67;73.00;;;;;2.34;65.95;99682.81;5055715;28;8879;-78
2023/12/08 06:41:45;;;;;;;;;68.25;56.00;;;;;2.57;64.53;99687.47;5039346;28;9021;-78
2023/12/08 06:44:15;;;;;;;;;78.50;58.25;;;;;2.65;63.70;99688.41;5028688;28;8914;-76
2023/12/08 06:46:44;;;;;;;;;80.25;62.50;;;;;2.89;63.90;99684.41;5020769;28;8995;-77
2023/12/08 06:49:13;;;;;;;;;72.75;58.50;;;;;3.04;63.48;99678.53;5055424;28;8852;-77
2023/12/08 06:51:42;;;;;;;;;66.00;54.00;;;;;2.96;62.43;99683.66;5048736;28;8844;-78
2023/12/08 06:54:11;;;;;;;;;69.50;55.75;;;;;3.11;62.21;99680.34;5066861;28;8847;-78
2023/12/08 06:56:42;;;;;;;;;66.75;52.50;;;;;3.10;61.67;99684.66;5069033;28;8976;-78
2023/12/08 06:59:12;;;;;;;;;69.25;53.50;;;;;3.19;62.12;99695.16;5003888;28;8870;-76
2023/12/08 07:01:41;;;;;;;;;64.75;49.75;;;;;3.13;61.80;99684.72;5070021;28;9526;-78
2023/12/08 07:04:10;;;;;;;;;66.00;52.75;;;;;3.22;61.93;99685.66;5071526;28;8878;-77
2023/12/08 07:06:39;;;;;;;;;65.50;51.50;;;;;3.23;60.60;99683.09;5052120;28;8871;-77
2023/12/08 07:09:09;;;;;;;;;66.50;56.50;;;;;3.25;61.18;99683.09;5069249;28;8964;-78
2023/12/08 07:11:38;;;;;;;;;70.25;54.00;;;;;3.22;61.29;99683.06;5036138;28;8855;-77
2023/12/08 07:14:07;;;;;;;;;64.00;52.75;;;;;3.31;60.79;99691.81;5052889;28;8863;-78
2023/12/08 07:16:37;;;;;;;;;64.75;52.25;;;;;3.44;61.35;99685.06;5138092;27;8840;-76
2023/12/08 07:19:07;;;;;;;;;62.50;52.75;;;;;3.55;60.94;99686.06;5135030;27;8970;-77
2023/12/08 07:21:42;;;;;;;;;60.25;48.50;;;;;3.65;60.74;99683.53;5152708;27;8987;-78
2023/12/08 07:24:11;;;;;;;;;72.25;53.00;;;;;3.68;60.06;99678.38;5134701;27;8849;-78
2023/12/08 07:26:42;;;;;;;;;67.75;51.75;;;;;3.72;59.47;99685.34;5153167;27;8825;-78
2023/12/08 07:29:11;;;;;;;;;62.75;51.00;;;;;3.82;59.77;99679.34;5152973;27;8833;-77
2023/12/08 07:31:42;;;;;;;;;61.25;50.50;;;;;3.76;59.77;99687.13;5109366;28;8885;-77
2023/12/08 07:34:11;;;;;;;;;64.75;52.00;;;;;3.74;59.54;99686.22;5055420;28;8929;-78
2023/12/08 07:36:40;;;;;;;;;65.75;50.25;;;;;3.77;59.68;99691.44;5038589;28;8827;-79
2023/12/08 07:39:10;;;;;;;;;63.75;50.50;;;;;3.87;59.55;99692.41;5006727;28;8972;-77
2023/12/08 07:41:39;;;;;;;;;64.75;49.75;;;;;3.89;59.22;99688.09;5088968;28;8885;-75
2023/12/08 07:44:08;;;;;;;;;67.75;52.25;;;;;3.96;58.54;99685.56;5071406;28;8823;-76
2023/12/08 07:46:38;;;;;;;;;53.25;44.50;;;;;4.07;58.30;99683.03;5055664;28;8859;-77
2023/12/08 07:49:09;;;;;;;;;61.50;47.50;;;;;4.01;57.86;99689.91;5088795;28;9140;-77
2023/12/08 07:51:38;;;;;;;;;66.75;54.00;;;;;4.07;58.15;99687.34;5072342;28;8881;-76
2023/12/08 07:54:07;;;;;;;;;67.50;53.75;;;;;4.05;58.13;99695.16;5091985;28;8855;-77
2023/12/08 07:56:36;;;;;;;;;65.00;49.00;;;;;4.10;57.78;99688.25;5040177;28;8851;-76
2023/12/08 07:59:05;;;;;;;;;67.25;49.50;;;;;4.12;58.39;99686.53;5087911;28;8858;-76
2023/12/08 08:01:35;;;;;;;;;60.00;50.25;;;;;4.14;58.41;99695.22;5088545;28;8856;-78
2023/12/08 08:04:04;;;;;;;;;55.00;45.00;;;;;4.20;58.18;99686.59;5091144;28;8977;-76
2023/12/08 08:06:34;;;;;;;;;60.50;49.50;;;;;4.25;57.93;99691.84;5150306;27;8853;-76
2023/12/08 08:09:04;;;;;;;;;59.50;48.50;;;;;4.29;57.79;99691.00;5118146;27;8833;-79
2023/12/08 08:11:33;;;;;;;;;70.50;55.00;;;;;4.35;58.06;99691.91;5144133;27;8944;-77
2023/12/08 08:14:02;;;;;;;;;74.75;58.50;;;;;4.33;57.92;99685.81;5120755;27;8841;-76
2023/12/08 08:16:31;;;;;;;;;67.25;53.50;;;;;4.35;57.07;99689.28;5141608;27;8854;-77
2023/12/08 08:19:00;;;;;;;;;67.50;55.25;;;;;4.38;57.19;99688.47;5112859;27;8863;-77
2023/12/08 08:21:29;;;;;;;;;64.50;50.50;;;;;4.35;57.06;99689.28;5114942;27;8843;-78
2023/12/08 08:24:00;;;;;;;;;68.50;53.75;;;;;4.43;57.02;99688.47;5116987;27;8840;-77
2023/12/08 08:26:28;;;;;;;;;61.25;47.50;;;;;4.39;57.40;99694.53;5152196;27;8898;-76
2023/12/08 08:28:58;;;;;;;;;54.75;47.00;;;;;4.40;57.01;99693.69;5152525;27;8841;-76
2023/12/08 08:31:26;;;;;;;;;64.75;51.00;;;;;4.17;56.76;99697.84;5117176;27;8845;-78
2023/12/08 08:33:56;;;;;;;;;59.75;48.25;;;;;4.30;57.25;99693.63;5134134;27;8852;-77
2023/12/08 08:36:25;;;;;;;;;63.00;51.75;;;;;4.40;57.10;99698.91;5082415;27;9685;-78
2023/12/08 08:38:54;;;;;;;;;61.25;50.75;;;;;4.41;56.90;99703.22;5152191;27;8873;-76
2023/12/08 08:41:25;;;;;;;;;64.00;51.25;;;;;4.47;56.89;99691.13;5133654;27;8919;-77
2023/12/08 08:43:54;;;;;;;;;63.50;48.75;;;;;4.37;56.71;99710.13;5152098;27;8845;-77
2023/12/08 08:46:22;;;;;;;;;63.50;52.00;;;;;4.35;56.60;99701.44;5133816;27;8971;-78
2023/12/08 08:48:54;;;;;;;;;47.75;42.00;;;;;4.39;56.41;99705.81;5113601;27;8880;-76
2023/12/08 08:51:23;;;;;;;;;55.50;45.75;;;;;4.34;56.39;99702.31;5115339;27;9691;-79
2023/12/08 08:53:54;;;;;;;;;62.00;51.50;;;;;4.32;56.65;99698.84;5116155;27;9578;-79
2023/12/08 08:56:24;;;;;;;;;59.50;49.00;;;;;4.31;56.20;99700.56;5116902;27;8938;-77
2023/12/08 08:58:54;;;;;;;;;64.75;50.75;;;;;4.39;56.41;99702.34;5136403;27;8829;-78
2023/12/08 09:01:23;;;;;;;;;57.75;44.50;;;;;4.41;56.57;99700.63;5134889;27;8991;-76
2023/12/08 09:03:53;;;;;;;;;61.50;50.50;;;;;4.46;56.37;99694.59;5084240;27;8837;-81
2023/12/08 09:06:21;;;;;;;;;64.75;50.25;;;;;4.56;55.80;99701.59;5133260;27;8877;-79
2023/12/08 09:08:51;;;;;;;;;62.00;46.75;;;;;4.47;55.72;99698.03;5133004;27;8887;-77
2023/12/08 09:11:20;;;;;;;;;61.00;49.75;;;;;4.53;55.94;99695.50;5063910;27;8915;-77
2023/12/08 09:13:50;;;;;;;;;73.50;58.50;;;;;4.61;55.99;99692.94;5133249;27;8968;-79
2023/12/08 09:16:19;;;;;;;;;77.00;62.00;;;;;4.63;55.89;99686.88;5114555;27;8857;-77
2023/12/08 09:18:47;;;;;;;;;70.25;56.75;;;;;4.60;55.62;99681.63;5097307;27;8833;-78
2023/12/08 09:21:16;;;;;;;;;74.25;57.50;;;;;4.63;55.89;99680.81;5132573;27;8845;-76
2023/12/08 09:23:45;;;;;;;;;73.50;55.00;;;;;4.62;55.92;99676.44;5109349;28;8869;-77
2023/12/08 09:26:14;;;;;;;;;82.25;64.00;;;;;4.65;55.49;99676.47;5110006;28;9603;-77
2023/12/08 09:28:43;;;;;;;;;71.25;57.25;;;;;4.61;55.90;99677.31;5091733;28;8842;-79
2023/12/08 09:31:13;;;;;;;;;59.00;45.75;;;;;4.65;55.91;99674.72;5059803;28;8902;-78
2023/12/08 09:33:42;;;;;;;;;68.75;53.50;;;;;4.70;55.50;99677.38;5109609;28;8941;-76
2023/12/08 09:36:12;;;;;;;;;62.75;51.00;;;;;4.61;55.24;99669.50;5074747;28;8888;-79
2023/12/08 09:38:41;;;;;;;;;65.75;51.00;;;;;4.59;55.51;99666.91;5110032;28;8856;-81
2023/12/08 09:41:10;;;;;;;;;69.75;52.75;;;;;4.66;55.67;99663.47;5108031;28;8888;-79
2023/12/08 09:43:47;;;;;;;;;68.50;51.25;;;;;4.81;55.63;99659.19;5108581;28;8837;-76
2023/12/08 09:46:19;;;;;;;;;67.50;52.50;;;;;4.78;55.21;99648.75;5104415;28;8843;-77
2023/12/08 09:48:50;;;;;;;;;67.25;56.00;;;;;4.82;55.50;99650.50;5098475;28;8848;-79
2023/12/08 09:51:20;;;;;;;;;82.00;61.50;;;;;4.86;55.00;99647.06;5090910;28;8843;-77
2023/12/08 09:53:50;;;;;;;;;65.75;49.25;;;;;4.92;54.17;99647.97;5094869;28;8897;-77
2023/12/08 09:56:20;;;;;;;;;67.25;49.75;;;;;4.87;54.22;99644.47;5109462;28;8953;-80
2023/12/08 09:58:50;;;;;;;;;72.00;56.25;;;;;4.75;54.47;99645.28;5106681;28;8836;-79
2023/12/08 10:01:20;;;;;;;;;67.50;55.75;;;;;4.84;55.11;99640.97;5106736;28;8836;-79
2023/12/08 10:03:50;;;;;;;;;73.50;59.25;;;;;4.79;54.78;99647.88;5056876;28;8835;-76
2023/12/08 10:06:21;;;;;;;;;68.75;54.75;;;;;4.80;55.11;99642.69;5085692;28;8977;-77
2023/12/08 10:08:50;;;;;;;;;71.75;57.25;;;;;4.79;55.03;99632.25;5028499;28;8896;-79
2023/12/08 10:11:19;;;;;;;;;77.50;61.25;;;;;4.84;54.66;99634.03;5106270;28;8860;-76
2023/12/08 10:13:49;;;;;;;;;78.00;61.25;;;;;4.71;54.42;99627.03;5089348;28;8839;-77
2023/12/08 10:16:17;;;;;;;;;69.25;55.25;;;;;4.53;54.93;99617.41;5089263;28;8924;-77
2023/12/08 10:18:49;;;;;;;;;68.50;54.25;;;;;4.59;54.80;99617.44;5089485;28;8952;-78
2023/12/08 10:21:19;;;;;;;;;74.25;56.00;;;;;4.64;54.68;99612.22;5072865;28;9711;-77
2023/12/08 10:23:59;;;;;;;;;72.25;57.50;;;;;4.47;55.35;99620.84;5108771;28;8861;-78
2023/12/08 10:26:29;;;;;;;;;66.25;54.00;;;;;4.57;54.66;99624.38;5107351;28;8861;-76
2023/12/08 10:28:59;;;;;;;;;70.25;55.50;;;;;4.57;54.69;99616.56;5106301;28;8857;-77
2023/12/08 10:31:28;;;;;;;;;74.50;59.00;;;;;4.52;54.90;99615.66;5106988;28;8853;-77
2023/12/08 10:33:59;;;;;;;;;79.75;60.50;;;;;4.49;55.16;99613.91;5109315;28;8841;-78
2023/12/08 10:36:28;;;;;;;;;71.00;54.25;;;;;4.41;54.98;99618.19;5076700;28;8852;-81
2023/12/08 10:38:57;;;;;;;;;71.75;55.75;;;;;4.31;54.92;99617.28;5088217;28;8849;-76
2023/12/08 10:41:26;;;;;;;;;72.50;57.00;;;;;4.17;55.93;99608.53;5087214;28;8882;-76
2023/12/08 10:43:55;;;;;;;;;75.75;57.25;;;;;4.17;56.10;99608.53;5069926;28;8861;-78
2023/12/08 10:46:26;;;;;;;;;70.50;55.25;;;;;4.22;56.24;99612.00;5091530;28;8857;-79
2023/12/08 10:48:56;;;;;;;;;72.25;56.75;;;;;3.95;56.74;99613.59;5094329;28;8874;-79
2023/12/08 10:51:28;;;;;;;;;79.25;58.75;;;;;3.98;56.41;99605.81;5109403;28;9702;-78
2023/12/08 10:53:57;;;;;;;;;82.50;61.00;;;;;3.96;56.43;99601.47;5109171;28;8988;-79
2023/12/08 10:56:26;;;;;;;;;76.75;59.50;;;;;4.00;56.55;99602.34;5107793;28;8841;-78
2023/12/08 10:59:02;;;;;;;;;74.50;58.25;;;;;3.86;56.83;99600.50;5109024;28;8865;-78
2023/12/08 11:01:34;;;;;;;;;82.00;60.00;;;;;3.73;57.99;99598.69;5108925;28;8845;-76
2023/12/08 11:04:07;;;;;;;;;78.50;60.00;;;;;3.83;57.56;99603.09;5107699;28;8892;-77
2023/12/08 11:06:44;;;;;;;;;84.50;64.25;;;;;3.96;57.69;99602.34;5108844;28;8849;-77
2023/12/08 11:09:15;;;;;;;;;81.25;61.25;;;;;3.90;57.76;99597.09;5108935;28;8879;-77
2023/12/08 11:11:53;;;;;;;;;75.50;57.50;;;;;3.91;57.40;99601.41;5108465;28;8837;-77
2023/12/08 11:14:33;;;;;;;;;77.00;62.00;;;;;3.91;57.89;99603.16;5065174;28;9005;-78
2023/12/08 11:17:06;;;;;;;;;77.00;59.75;;;;;3.90;57.59;99604.91;5065394;28;8871;-77
2023/12/08 11:19:36;;;;;;;;;78.00;60.75;;;;;4.00;56.78;99595.44;5065397;28;8859;-77
2023/12/08 11:22:08;;;;;;;;;78.50;61.75;;;;;3.93;57.31;99602.31;5078806;28;8856;-78
2023/12/08 11:24:38;;;;;;;;;78.00;60.25;;;;;3.72;58.55;99589.16;5106246;28;9895;-77
2023/12/08 11:27:12;;;;;;;;;68.75;50.25;;;;;3.72;58.68;99589.16;5065640;28;8881;-77
2023/12/08 11:29:48;;;;;;;;;78.75;59.50;;;;;3.82;58.23;99593.56;5048611;28;8888;-78
2023/12/08 11:32:26;;;;;;;;;81.75;63.00;;;;;3.67;58.20;99589.09;5048703;28;9619;-77
2023/12/08 11:35:01;;;;;;;;;71.75;57.25;;;;;3.84;57.45;99594.44;5067384;28;9026;-78
2023/12/08 11:37:33;;;;;;;;;78.50;61.25;;;;;3.58;58.19;99589.91;5066418;28;9022;-79
2023/12/08 11:40:06;;;;;;;;;77.50;59.75;;;;;3.68;57.84;99590.84;5050430;28;8852;-77
2023/12/08 11:42:35;;;;;;;;;73.50;56.25;;;;;3.71;58.24;99603.84;5068391;28;8991;-79
2023/12/08 11:45:07;;;;;;;;;69.25;56.00;;;;;3.67;58.51;99604.69;5073080;28;8980;-77